Mamer, Luxembourg
Current Conditions -  °F | °C
As of 7:20 PM on Sunday 25 Jan 2015 (Local Time) from ELLX Reporting Station
Light Snow Light Snow  
Wind Chill: 26°   Ceiling: 3800
Heat Index: 32°   Visibility: 1mi
Dew Point: 32°   Wind: 7mph
Humidity: 100%   Direction: 260°W
Pressure: 30.39"   Gusts: NA
Location:  49.63°N, 6.02°E
Report Text: ELLX 251820Z 26006KT 1700 R24/P1500VP1500N -SN BR FEW001 OVC038 00/00 Q1029 NOSIG
Loading
Personal Weather Stations






























Interactive Weather Map New forecast layout! Learn more

10-Day Weather Forecast

Advertisements
Track Severe Weather on mobile